Miltona, Minnesota
Current Conditions -  °F | °C
As of 3:53 AM on Sunday 21 Dec 2014 (Local Time) from KAXN Reporting Station
Haze Haze  
Wind Chill: 18°   Ceiling: 400
Heat Index: 30°   Visibility: 5mi
Dew Point: 28°   Wind: 18mph
Humidity: 92%   Direction: 180°S
Pressure: 29.87"   Gusts: NA
Location:  46.04°N, 95.29°W
Report Text: KAXN 210953Z AUTO 18016KT 5SM BR OVC004 M01/M02 A2987 RMK AO2 SLP132 T10111022
Loading
Personal Weather Stations






























Interactive Weather Map New forecast layout! Learn more

10-Day Weather Forecast

Advertisements
Track Severe Weather on mobile